Weather at Tono Airport [CLOSED]

Public forecast

Using degrees Fahrenheit for public forecast. Weather courtesy of forecast.io.

Closest aviation weather report (METAR) to Tono Airport

Closest report is Chehalis Centralia Airport, 8.6 nm (15.9 km) SW.

2024/06/15 17:15 (retrieved 13 minutes ago)

KCLS 151715Z AUTO 20006KT 5SM BR CLR 11/10 A3011 RMK AO2

Closest aviation forecast (TAF) to Tono Airport

Closest forecast is Olympia Regional Airport, 12.1 nm (22.4 km) NNW.

2024/06/15 12:39 (retrieved 5 hours ago)

TAF KOLM 151136Z 1512/1612 20007KT P6SM -SHRA BKN035 OVC050 FM151500 22010KT P6SM -SHRA OVC025 FM151900 22013G22KT P6SM -SHRA BKN030 OVC050 TEMPO 1519/1523 -TSRA BKN030CB FM160000 24010KT P6SM VCSH SCT030 BKN050 FM160600 20005KT P6SM OVC030